Time;durP1;ratioP1;P1;durP2;ratioP2;P2;SDS_P1;SDS_P2;PMS_P1;PMS_P2;Temp;Humidity;BMP_temperature;BMP_pressure;BME280_temperature;BME280_humidity;BME280_pressure;Samples;Min_cycle;Max_cycle;Signal;HPM_P1;HPM_P2
2023/10/15 00:00:52;;;;;;;2.03;1.08;;;12.00;99.90;;;;;;5093094;28;20028;-83
2023/10/15 00:03:17;;;;;;;2.17;0.82;;;12.00;99.90;;;;;;5094235;28;20043;-83
2023/10/15 00:05:43;;;;;;;4.20;0.90;;;12.00;99.90;;;;;;5093683;28;20475;-83
2023/10/15 00:08:09;;;;;;;5.82;0.95;;;12.00;99.90;;;;;;5093488;28;20487;-84
2023/10/15 00:10:36;;;;;;;2.33;0.93;;;12.00;99.90;;;;;;5092556;28;20024;-83
2023/10/15 00:13:02;;;;;;;4.35;1.17;;;12.10;99.90;;;;;;5094070;28;20025;-83
2023/10/15 00:15:29;;;;;;;3.90;1.25;;;12.00;99.90;;;;;;5092648;28;20031;-82
2023/10/15 00:18:03;;;;;;;6.88;0.90;;;12.00;99.90;;;;;;5094087;28;20029;-83
2023/10/15 00:20:34;;;;;;;8.18;1.00;;;12.10;99.90;;;;;;5092596;28;20024;-83
2023/10/15 00:23:06;;;;;;;;;;;12.10;99.90;;;;;;5093872;28;20169;-82
2023/10/15 00:25:36;;;;;;;13.43;1.40;;;12.20;99.90;;;;;;5092471;28;19904;-81
2023/10/15 00:28:08;;;;;;;2.90;0.80;;;12.10;99.90;;;;;;5092864;28;20032;-81
2023/10/15 00:30:34;;;;;;;3.97;0.90;;;12.10;99.90;;;;;;5092426;28;20032;-81
2023/10/15 00:33:06;;;;;;;4.32;1.10;;;12.10;99.90;;;;;;5092763;28;20036;-81
2023/10/15 00:35:33;;;;;;;3.28;0.82;;;12.00;99.90;;;;;;5092253;28;20044;-81
2023/10/15 00:38:24;;;;;;;2.60;0.95;;;11.90;99.90;;;;;;5094061;28;20103;-81
2023/10/15 00:40:51;;;;;;;5.32;0.98;;;11.90;99.90;;;;;;5091986;28;20054;-82
2023/10/15 00:43:18;;;;;;;2.90;1.00;;;12.00;99.90;;;;;;5092870;28;20081;-81
2023/10/15 00:45:45;;;;;;;4.93;0.90;;;11.90;99.90;;;;;;5092927;28;20028;-82
2023/10/15 00:48:33;;;;;;;4.00;0.80;;;12.00;99.90;;;;;;5092513;28;20033;-82
2023/10/15 00:51:03;;;;;;;3.22;0.93;;;12.00;99.90;;;;;;5092965;28;20028;-82
2023/10/15 00:53:29;;;;;;;2.67;1.00;;;12.00;99.90;;;;;;5093352;28;20036;-82
2023/10/15 00:56:10;;;;;;;2.35;1.20;;;12.00;99.90;;;;;;5092590;28;20120;-82
2023/10/15 01:03:48;;;;;;;7.82;1.13;;;12.20;99.90;;;;;;5093190;28;20036;-81
2023/10/15 01:06:52;;;;;;;3.50;0.90;;;12.10;99.90;;;;;;5093614;28;20024;-82
2023/10/15 01:09:19;;;;;;;3.17;1.13;;;12.10;99.90;;;;;;5090137;28;20032;-82
2023/10/15 01:12:31;;;;;;;4.60;1.15;;;12.20;99.90;;;;;;5091740;28;20123;-82
2023/10/15 01:14:43;;;;;;;3.70;1.30;;;12.20;99.90;;;;;;5084436;28;20032;-82
2023/10/15 01:17:09;;;;;;;3.22;0.95;;;12.20;99.90;;;;;;5092826;28;20028;-82
2023/10/15 01:19:36;;;;;;;3.33;0.77;;;12.10;99.90;;;;;;5094992;28;20028;-81
2023/10/15 01:22:07;;;;;;;5.45;0.95;;;12.20;99.90;;;;;;5097044;28;20055;-82
2023/10/15 01:24:36;;;;;;;3.50;1.08;;;12.20;99.90;;;;;;5096514;28;20016;-82
2023/10/15 01:27:13;;;;;;;4.80;1.23;;;12.10;99.90;;;;;;5095836;28;20039;-82
2023/10/15 01:29:47;;;;;;;5.72;1.13;;;12.10;99.90;;;;;;5095490;28;20028;-82
2023/10/15 01:32:15;;;;;;;5.25;0.88;;;12.10;99.90;;;;;;5095489;28;20038;-82
2023/10/15 01:34:45;;;;;;;4.15;0.98;;;12.10;99.90;;;;;;5094979;28;20130;-82
2023/10/15 01:39:49;;;;;;;5.38;0.88;;;12.10;99.90;;;;;;5096186;28;20032;-82
2023/10/15 01:45:08;;;;;;;4.32;1.55;;;12.10;99.90;;;;;;5096640;28;20484;-82
2023/10/15 01:47:36;;;;;;;3.85;1.02;;;12.10;99.90;;;;;;5095334;28;20029;-81
2023/10/15 01:50:08;;;;;;;5.82;1.35;;;12.10;99.90;;;;;;5095707;28;20397;-81
2023/10/15 01:52:39;;;;;;;3.03;0.93;;;12.10;99.90;;;;;;5095047;28;20032;-81
2023/10/15 01:55:06;;;;;;;3.80;1.00;;;12.10;99.90;;;;;;5095714;28;20031;-81
2023/10/15 01:57:32;;;;;;;5.32;0.65;;;12.00;99.90;;;;;;5094930;28;20028;-81
2023/10/15 02:02:40;;;;;;;4.07;0.90;;;12.10;99.90;;;;;;5095827;28;20036;-81
2023/10/15 02:05:16;;;;;;;5.18;1.20;;;12.10;99.90;;;;;;5095435;28;20387;-81
2023/10/15 02:07:42;;;;;;;4.00;0.77;;;12.20;99.90;;;;;;5095045;28;20024;-81
2023/10/15 02:10:12;;;;;;;4.28;0.80;;;12.20;99.90;;;;;;5095102;28;20031;-81
2023/10/15 02:12:37;;;;;;;4.18;0.70;;;12.20;99.90;;;;;;5094528;28;20404;-81
2023/10/15 02:15:14;;;;;;;6.07;0.95;;;12.20;99.90;;;;;;5095910;28;20032;-81
2023/10/15 02:17:42;;;;;;;2.63;0.65;;;12.20;99.90;;;;;;5094658;28;20032;-81
2023/10/15 02:20:11;;;;;;;3.25;0.70;;;12.10;99.90;;;;;;5094921;28;20028;-84
2023/10/15 02:22:38;;;;;;;7.15;0.88;;;12.20;99.90;;;;;;5094403;28;20517;-84
2023/10/15 02:25:04;;;;;;;4.78;0.90;;;12.30;99.90;;;;;;5095050;28;20059;-84
2023/10/15 02:27:35;;;;;;;2.15;0.75;;;12.30;99.90;;;;;;5095081;28;20469;-84
2023/10/15 02:30:01;;;;;;;3.80;0.68;;;12.30;99.90;;;;;;5095711;28;20065;-83
2023/10/15 02:34:54;;;;;;;6.35;0.73;;;12.30;99.90;;;;;;5094776;28;20493;-84
2023/10/15 02:37:26;;;;;;;2.22;0.60;;;12.30;99.90;;;;;;5094625;28;20035;-84
2023/10/15 02:39:53;;;;;;;2.75;0.90;;;12.30;99.90;;;;;;5094211;28;20074;-83
2023/10/15 02:42:30;;;;;;;3.75;0.60;;;12.30;99.90;;;;;;5094456;28;20039;-83
2023/10/15 02:44:58;;;;;;;3.22;0.70;;;12.30;99.90;;;;;;5093864;28;20131;-83
2023/10/15 02:47:48;;;;;;;6.90;1.25;;;12.40;99.90;;;;;;5095608;28;20021;-84
2023/10/15 02:50:17;;;;;;;3.90;0.68;;;12.40;99.90;;;;;;5095190;28;20031;-84
2023/10/15 02:52:43;;;;;;;5.22;0.75;;;12.40;99.90;;;;;;5093799;28;20380;-84
2023/10/15 02:55:14;;;;;;;3.13;0.70;;;12.40;99.90;;;;;;5094051;28;20032;-81
2023/10/15 02:57:42;;;;;;;5.85;0.70;;;12.30;99.90;;;;;;5094772;28;20020;-80
2023/10/15 03:00:13;;;;;;;2.58;0.70;;;12.30;99.90;;;;;;5094107;28;20115;-81
2023/10/15 03:02:43;;;;;;;3.03;1.20;;;12.30;99.90;;;;;;5093398;28;20028;-80
2023/10/15 03:05:13;;;;;;;1.42;0.50;;;12.30;99.90;;;;;;5094199;28;20035;-80
2023/10/15 03:07:42;;;;;;;3.70;0.75;;;12.30;99.90;;;;;;5093472;28;20457;-80
2023/10/15 03:10:12;;;;;;;2.58;0.90;;;12.30;99.90;;;;;;5094997;28;20069;-81
2023/10/15 03:12:43;;;;;;;4.43;0.77;;;12.20;99.90;;;;;;5093612;28;20032;-80
2023/10/15 03:15:16;;;;;;;4.93;1.00;;;12.30;99.90;;;;;;5093736;28;20039;-81
2023/10/15 03:17:43;;;;;;;5.28;0.75;;;12.30;99.90;;;;;;5094412;28;20024;-83
2023/10/15 03:22:51;;;;;;;2.88;0.65;;;12.20;99.90;;;;;;5094246;28;20024;-83
2023/10/15 03:25:18;;;;;;;4.25;0.75;;;12.20;99.90;;;;;;5093673;28;20118;-84
2023/10/15 03:27:46;;;;;;;4.07;0.63;;;12.20;99.90;;;;;;5093109;28;20484;-84
2023/10/15 03:30:15;;;;;;;3.35;0.75;;;12.20;99.90;;;;;;5094591;28;20103;-84
2023/10/15 03:32:44;;;;;;;4.55;1.27;;;12.20;99.90;;;;;;5093103;28;20035;-83
2023/10/15 03:38:13;;;;;;;3.65;0.60;;;11.90;99.90;;;;;;5081125;28;20389;-84
2023/10/15 03:43:15;;;;;;;3.10;0.77;;;12.00;99.90;;;;;;5093506;28;20042;-84
2023/10/15 03:45:50;;;;;;;5.88;0.88;;;11.90;99.90;;;;;;5092967;28;20028;-83
2023/10/15 03:48:36;;;;;;;8.23;1.40;;;11.80;99.90;;;;;;5093254;28;20465;-84
2023/10/15 03:51:05;;;;;;;2.30;0.70;;;11.80;99.90;;;;;;5094491;28;20110;-84
2023/10/15 03:53:35;;;;;;;1.67;0.73;;;11.60;99.90;;;;;;5093157;28;20422;-84
2023/10/15 03:56:04;;;;;;;4.90;0.70;;;11.60;99.90;;;;;;5092890;28;20028;-84
2023/10/15 03:58:33;;;;;;;2.60;0.70;;;11.70;99.90;;;;;;5093543;28;20039;-84
2023/10/15 04:03:35;;;;;;;3.95;0.90;;;11.80;99.90;;;;;;5094276;28;20028;-84
2023/10/15 04:06:05;;;;;;;3.42;0.90;;;11.70;99.90;;;;;;5092598;28;20024;-84
2023/10/15 04:08:34;;;;;;;2.92;0.80;;;11.70;99.90;;;;;;5094062;28;20027;-84
2023/10/15 04:11:00;;;;;;;5.35;0.60;;;11.70;99.90;;;;;;5093550;28;20422;-84
2023/10/15 04:13:26;;;;;;;5.65;0.88;;;11.60;99.90;;;;;;5093036;28;20032;-84
2023/10/15 04:15:56;;;;;;;2.65;0.90;;;11.60;99.90;;;;;;5092397;28;20078;-84
2023/10/15 04:18:23;;;;;;;3.58;1.02;;;11.60;99.90;;;;;;5093317;28;20066;-84
2023/10/15 04:20:49;;;;;;;5.30;0.70;;;11.50;99.90;;;;;;5093568;28;20024;-84
2023/10/15 04:23:30;;;;;;;2.92;1.00;;;11.60;99.90;;;;;;5093888;28;20028;-82
2023/10/15 04:26:00;;;;;;;4.85;0.60;;;11.70;99.90;;;;;;5093630;28;20035;-82
2023/10/15 04:28:27;;;;;;;4.28;1.25;;;11.70;99.90;;;;;;5093836;28;20024;-82
2023/10/15 04:30:53;;;;;;;4.85;1.17;;;11.70;99.90;;;;;;5093429;28;20024;-82
2023/10/15 04:33:20;;;;;;;5.13;1.08;;;11.80;99.90;;;;;;5092977;28;20040;-82
2023/10/15 04:35:49;;;;;;;3.75;0.88;;;11.80;99.90;;;;;;5093204;28;20044;-82
2023/10/15 04:38:33;;;;;;;5.07;1.35;;;11.90;99.90;;;;;;5093974;28;20092;-81
2023/10/15 04:41:00;;;;;;;3.72;0.85;;;11.90;99.90;;;;;;5092216;28;20479;-81
2023/10/15 04:43:26;;;;;;;3.05;1.05;;;11.80;99.90;;;;;;5092940;28;20024;-83
2023/10/15 04:45:56;;;;;;;4.63;1.10;;;11.80;99.90;;;;;;5093070;28;20028;-82
2023/10/15 04:48:32;;;;;;;5.68;0.98;;;11.80;99.90;;;;;;5093561;28;20020;-82
2023/10/15 04:51:04;;;;;;;4.63;0.90;;;11.90;99.90;;;;;;5092207;28;20079;-82
2023/10/15 04:53:30;;;;;;;3.55;0.80;;;11.80;99.90;;;;;;5093018;28;20032;-82
2023/10/15 04:55:57;;;;;;;5.18;1.13;;;11.80;99.90;;;;;;5096112;28;20024;-82
2023/10/15 04:58:27;;;;;;;4.03;0.90;;;11.90;99.90;;;;;;5096541;28;20020;-82
2023/10/15 05:00:54;;;;;;;5.40;1.27;;;11.90;99.90;;;;;;5096821;28;20017;-82
2023/10/15 05:03:20;;;;;;;3.67;0.88;;;11.90;99.90;;;;;;5096708;28;20089;-82
2023/10/15 05:05:46;;;;;;;1.92;0.50;;;11.90;99.90;;;;;;5095925;28;20031;-82
2023/10/15 05:08:13;;;;;;;2.03;0.55;;;11.80;99.90;;;;;;5096473;28;20028;-82
2023/10/15 05:10:50;;;;;;;2.65;0.73;;;11.80;99.90;;;;;;5096255;28;20053;-82
2023/10/15 05:13:16;;;;;;;5.13;0.75;;;11.70;99.90;;;;;;5096387;28;20484;-82
2023/10/15 05:15:44;;;;;;;4.13;0.70;;;11.70;99.90;;;;;;5095667;28;20055;-81
2023/10/15 05:18:10;;;;;;;2.88;0.73;;;11.60;99.90;;;;;;5096017;28;20066;-83
2023/10/15 05:20:39;;;;;;;6.57;1.13;;;11.60;99.90;;;;;;5096949;28;20113;-83
2023/10/15 05:23:05;;;;;;;4.25;0.80;;;11.60;99.90;;;;;;5095611;28;20032;-83
2023/10/15 05:25:32;;;;;;;4.22;1.00;;;11.70;99.90;;;;;;5096050;28;20020;-83
2023/10/15 05:27:59;;;;;;;5.40;1.00;;;11.60;99.90;;;;;;5095655;28;20024;-83
2023/10/15 05:30:26;;;;;;;5.28;0.70;;;11.60;99.90;;;;;;5097095;28;20016;-82
2023/10/15 05:32:51;;;;;;;4.35;0.90;;;11.50;99.90;;;;;;5095231;28;20036;-82
2023/10/15 05:35:18;;;;;;;5.18;0.90;;;11.50;99.90;;;;;;5096660;28;20040;-82
2023/10/15 05:37:45;;;;;;;4.65;0.93;;;11.60;99.90;;;;;;5095433;28;20082;-81
2023/10/15 05:40:17;;;;;;;5.25;0.90;;;11.60;99.90;;;;;;5095674;28;20060;-82
2023/10/15 05:42:43;;;;;;;3.83;0.90;;;11.40;99.90;;;;;;5095681;28;20040;-83
2023/10/15 05:45:09;;;;;;;5.00;0.98;;;11.40;99.90;;;;;;5095683;28;20119;-82
2023/10/15 05:47:35;;;;;;;3.95;0.95;;;11.40;99.90;;;;;;5095619;28;20028;-83
2023/10/15 05:50:04;;;;;;;3.88;0.60;;;11.50;99.90;;;;;;5096351;28;20035;-83
2023/10/15 05:52:30;;;;;;;3.60;0.80;;;11.40;99.90;;;;;;5095315;28;20055;-83
2023/10/15 05:54:55;;;;;;;3.25;0.77;;;11.40;99.90;;;;;;5096009;28;20039;-82
2023/10/15 05:57:21;;;;;;;4.60;0.80;;;11.40;99.90;;;;;;5095359;28;20111;-82
2023/10/15 05:59:48;;;;;;;12.35;2.30;;;11.40;99.90;;;;;;5094816;28;20499;-81
2023/10/15 06:02:14;;;;;;;3.15;0.77;;;11.40;99.90;;;;;;5085781;28;20129;-82
2023/10/15 06:04:39;;;;;;;4.22;0.70;;;11.40;99.90;;;;;;5084055;28;20465;-82
2023/10/15 06:07:05;;;;;;;3.67;0.75;;;11.40;99.90;;;;;;5074993;28;20035;-82
2023/10/15 06:09:37;;;;;;;2.88;0.60;;;11.40;99.90;;;;;;5077756;28;20060;-84
2023/10/15 06:12:03;;;;;;;;;;;11.40;99.90;;;;;;5080243;28;20417;-84
2023/10/15 06:14:28;;;;;;;5.10;0.70;;;11.20;99.90;;;;;;5087930;28;20014;-83
2023/10/15 06:16:58;;;;;;;3.25;0.60;;;11.20;99.90;;;;;;5097567;28;20095;-83
2023/10/15 06:19:24;;;;;;;3.17;0.63;;;11.20;99.90;;;;;;5107450;28;20020;-84
2023/10/15 06:21:50;;;;;;;4.38;0.63;;;11.20;99.90;;;;;;5105452;28;20038;-84
2023/10/15 06:24:16;;;;;;;3.63;0.52;;;11.20;99.90;;;;;;5101119;28;20044;-84
2023/10/15 06:26:41;;;;;;;6.28;0.90;;;11.20;99.90;;;;;;5112133;28;20035;-87
2023/10/15 06:29:09;;;;;;;4.45;0.90;;;11.20;99.90;;;;;;5099053;28;20024;-87
2023/10/15 06:31:38;;;;;;;5.30;1.13;;;11.20;99.90;;;;;;5110556;28;20015;-86
2023/10/15 06:34:06;;;;;;;1.70;0.50;;;11.20;99.90;;;;;;5106495;28;20088;-87
2023/10/15 06:36:32;;;;;;;4.22;0.85;;;11.20;99.90;;;;;;5097879;28;20035;-87
2023/10/15 06:38:59;;;;;;;3.38;0.70;;;11.20;99.90;;;;;;5081552;28;20012;-87
2023/10/15 06:41:24;;;;;;;4.00;0.65;;;11.20;99.90;;;;;;5107234;28;20107;-88
2023/10/15 06:43:50;;;;;;;3.35;0.60;;;11.20;99.90;;;;;;5094989;28;20168;-84
2023/10/15 06:46:16;;;;;;;2.25;0.68;;;11.20;99.90;;;;;;5108976;28;20043;-84
2023/10/15 06:48:42;;;;;;;2.38;0.73;;;11.10;99.90;;;;;;5097380;28;20027;-84
2023/10/15 06:51:09;;;;;;;2.85;0.50;;;11.10;99.90;;;;;;5109813;28;20016;-85
2023/10/15 06:53:34;;;;;;;2.75;0.70;;;11.10;99.90;;;;;;5103500;28;20052;-86
2023/10/15 06:56:01;;;;;;;3.33;0.75;;;11.00;99.90;;;;;;5102577;28;20063;-85
2023/10/15 06:58:28;;;;;;;2.88;0.88;;;11.00;99.90;;;;;;5109850;28;20020;-85
2023/10/15 07:00:58;;;;;;;3.40;1.08;;;11.00;99.90;;;;;;5093305;28;20028;-85
2023/10/15 07:03:24;;;;;;;2.78;0.88;;;11.00;99.90;;;;;;5106930;28;20024;-87
2023/10/15 07:05:50;;;;;;;6.63;0.80;;;11.00;99.90;;;;;;5103804;28;20027;-89
2023/10/15 07:08:16;;;;;;;3.35;0.75;;;10.90;99.90;;;;;;5099533;28;20035;-94
2023/10/15 07:10:42;;;;;;;4.25;1.10;;;11.00;99.90;;;;;;5110127;28;20023;-86
2023/10/15 07:13:08;;;;;;;5.15;0.93;;;11.00;99.90;;;;;;5094239;28;20042;-85
2023/10/15 07:15:38;;;;;;;5.78;0.98;;;11.00;99.90;;;;;;5102274;28;20115;-86
2023/10/15 07:18:04;;;;;;;2.85;1.63;;;10.90;99.90;;;;;;5098110;28;20059;-94
2023/10/15 07:20:30;;;;;;;2.95;0.60;;;10.90;99.90;;;;;;5109923;28;20142;-88
2023/10/15 07:22:57;;;;;;;4.15;0.88;;;10.80;99.90;;;;;;5088864;28;20035;-88
2023/10/15 07:25:29;;;;;;;5.00;0.70;;;10.90;99.90;;;;;;5110671;28;20084;-94
2023/10/15 07:27:57;;;;;;;2.63;0.65;;;11.00;99.90;;;;;;5098578;28;20107;-92
2023/10/15 07:30:24;;;;;;;5.15;1.20;;;11.00;99.90;;;;;;5086894;28;20058;-92
2023/10/15 07:32:58;;;;;;;4.97;0.95;;;10.90;99.90;;;;;;5077624;28;20468;-83
2023/10/15 07:35:26;;;;;;;4.47;1.10;;;11.00;99.90;;;;;;5093221;28;20036;-85
2023/10/15 07:37:52;;;;;;;3.05;0.80;;;11.00;99.90;;;;;;5093406;28;20032;-81
2023/10/15 07:40:22;;;;;;;3.60;0.80;;;11.10;99.90;;;;;;5094305;28;20031;-82
2023/10/15 07:42:50;;;;;;;7.20;1.02;;;11.10;99.90;;;;;;5093033;28;20059;-81
2023/10/15 07:45:16;;;;;;;3.97;0.93;;;11.10;99.90;;;;;;5094370;28;20032;-82
2023/10/15 07:47:42;;;;;;;2.97;0.85;;;11.20;99.90;;;;;;5093307;28;20063;-82
2023/10/15 07:50:12;;;;;;;6.28;0.93;;;11.20;99.90;;;;;;5092735;28;20050;-82
2023/10/15 07:52:39;;;;;;;5.00;0.90;;;11.20;99.90;;;;;;5093130;28;20127;-81
2023/10/15 07:55:06;;;;;;;6.57;1.42;;;11.30;99.90;;;;;;5093705;28;20020;-82
2023/10/15 07:57:34;;;;;;;6.45;1.02;;;11.20;99.90;;;;;;5092985;28;20028;-82
2023/10/15 07:59:59;;;;;;;2.75;0.80;;;11.30;99.90;;;;;;5093509;28;20024;-81
2023/10/15 08:02:26;;;;;;;4.97;0.98;;;11.20;99.90;;;;;;5093200;28;20024;-81
2023/10/15 08:04:55;;;;;;;3.42;0.70;;;11.30;99.90;;;;;;5092866;28;20024;-81
2023/10/15 08:07:22;;;;;;;6.95;1.42;;;11.30;99.90;;;;;;5092925;28;20028;-82
2023/10/15 08:09:49;;;;;;;3.28;0.80;;;11.40;99.90;;;;;;5092894;28;20070;-81
2023/10/15 08:12:16;;;;;;;2.75;0.70;;;11.40;99.90;;;;;;5093884;28;20077;-82
2023/10/15 08:14:41;;;;;;;2.05;0.90;;;11.50;99.90;;;;;;5094090;28;20024;-82
2023/10/15 08:17:07;;;;;;;3.20;0.70;;;11.50;99.90;;;;;;5092406;28;20336;-82
2023/10/15 08:19:33;;;;;;;4.57;0.73;;;11.40;99.90;;;;;;5093185;28;20034;-82
2023/10/15 08:21:59;;;;;;;4.45;1.08;;;11.50;99.90;;;;;;5092419;28;20020;-82
2023/10/15 08:24:25;;;;;;;4.32;0.85;;;11.40;99.90;;;;;;5093028;28;20060;-82
2023/10/15 08:26:51;;;;;;;1.98;0.80;;;11.50;99.90;;;;;;5092444;28;20380;-81
2023/10/15 08:29:19;;;;;;;2.92;0.63;;;11.60;99.90;;;;;;5094565;28;20031;-81
2023/10/15 08:31:48;;;;;;;5.18;0.80;;;11.60;99.90;;;;;;5097206;28;20055;-82
2023/10/15 08:34:14;;;;;;;1.08;0.38;;;11.60;99.90;;;;;;5097277;28;20101;-81
2023/10/15 08:36:39;;;;;;;4.07;1.00;;;11.60;99.90;;;;;;5097944;28;20032;-82
2023/10/15 08:39:08;;;;;;;5.30;0.63;;;11.70;99.90;;;;;;5096430;28;20024;-81
2023/10/15 08:41:43;;;;;;;2.75;0.38;;;11.70;99.90;;;;;;5096581;28;20020;-82
2023/10/15 08:44:10;;;;;;;4.15;0.80;;;11.70;99.90;;;;;;5097147;28;20542;-82
2023/10/15 08:46:39;;;;;;;1.88;0.55;;;11.80;99.90;;;;;;5096417;28;20059;-82
2023/10/15 08:49:08;;;;;;;4.25;0.50;;;11.80;99.90;;;;;;5096380;28;20028;-82
2023/10/15 08:51:36;;;;;;;3.15;0.50;;;11.90;99.90;;;;;;5096678;28;20115;-82
2023/10/15 08:54:03;;;;;;;3.58;0.63;;;11.90;99.80;;;;;;5096047;28;20048;-81
2023/10/15 08:56:33;;;;;;;2.83;0.60;;;11.90;99.90;;;;;;5096675;28;20081;-82
2023/10/15 08:58:59;;;;;;;1.27;0.45;;;12.00;99.90;;;;;;5097009;28;20080;-82
2023/10/15 09:01:25;;;;;;;1.83;0.60;;;12.00;99.40;;;;;;5096547;28;20380;-82
2023/10/15 09:03:54;;;;;;;2.15;1.27;;;12.00;99.20;;;;;;5095977;28;20424;-81
2023/10/15 09:06:20;;;;;;;3.15;0.57;;;12.00;98.40;;;;;;5096246;28;20032;-82
2023/10/15 09:08:46;;;;;;;5.78;0.77;;;12.00;98.60;;;;;;5096465;28;20078;-82
2023/10/15 09:11:12;;;;;;;2.25;0.45;;;12.00;98.90;;;;;;5095790;28;20526;-82
2023/10/15 09:13:38;;;;;;;4.05;0.57;;;12.10;98.90;;;;;;5097176;28;20028;-82
2023/10/15 09:16:05;;;;;;;4.22;0.70;;;12.10;98.30;;;;;;5096801;28;20038;-82
2023/10/15 09:18:35;;;;;;;6.07;1.27;;;12.20;98.10;;;;;;5096695;28;20457;-82
2023/10/15 09:21:03;;;;;;;3.83;0.85;;;12.20;98.10;;;;;;5095591;28;20081;-81
2023/10/15 09:23:36;;;;;;;5.63;2.03;;;12.20;97.40;;;;;;5095873;28;20465;-82
2023/10/15 09:26:06;;;;;;;6.28;1.00;;;12.20;97.60;;;;;;5095522;28;20028;-82
2023/10/15 09:28:36;;;;;;;3.30;0.98;;;12.30;97.10;;;;;;5096149;28;20024;-81
2023/10/15 09:31:06;;;;;;;5.15;1.05;;;12.20;97.10;;;;;;5095220;28;20020;-82
2023/10/15 09:33:33;;;;;;;10.52;3.05;;;12.20;97.40;;;;;;5096014;28;20415;-82
2023/10/15 09:36:02;;;;;;;6.47;0.90;;;12.30;97.70;;;;;;5095154;28;20044;-82
2023/10/15 09:38:31;;;;;;;5.38;1.20;;;12.40;97.00;;;;;;5095569;28;20020;-82
2023/10/15 09:40:58;;;;;;;4.40;1.00;;;12.60;97.10;;;;;;5095173;28;20024;-81
2023/10/15 09:43:25;;;;;;;3.53;0.90;;;12.70;96.30;;;;;;5095323;28;20081;-82
2023/10/15 09:45:54;;;;;;;1.73;0.60;;;12.80;96.10;;;;;;5095505;28;20093;-82
2023/10/15 09:48:24;;;;;;;8.90;3.35;;;12.90;96.30;;;;;;5096437;28;20028;-82
2023/10/15 09:50:56;;;;;;;3.17;1.02;;;13.00;96.30;;;;;;5095366;28;20028;-82
2023/10/15 09:53:23;;;;;;;3.15;1.13;;;13.00;95.20;;;;;;5095511;28;20366;-82
2023/10/15 09:55:51;;;;;;;6.22;2.30;;;12.90;95.00;;;;;;5096416;28;20059;-82
2023/10/15 09:58:17;;;;;;;3.60;1.60;;;12.80;94.40;;;;;;5094980;28;20051;-82
2023/10/15 10:01:08;;;;;;;6.18;1.17;;;12.80;94.50;;;;;;5095241;28;20077;-82
2023/10/15 10:03:49;;;;;;;3.33;0.80;;;12.90;94.30;;;;;;5095214;28;20028;-82
2023/10/15 10:06:37;;;;;;;8.27;3.13;;;12.80;93.90;;;;;;5095753;28;20032;-81
2023/10/15 10:09:21;;;;;;;4.20;1.88;;;12.90;93.90;;;;;;5095618;28;20020;-82
2023/10/15 10:11:56;;;;;;;4.65;1.13;;;13.00;94.30;;;;;;5096370;28;20053;-82
2023/10/15 10:14:29;;;;;;;3.00;1.00;;;13.10;93.20;;;;;;5095214;28;20067;-82
2023/10/15 10:16:56;;;;;;;6.18;0.95;;;13.10;93.30;;;;;;5094750;28;20534;-81
2023/10/15 10:19:22;;;;;;;2.35;0.82;;;13.20;93.70;;;;;;5095959;28;20027;-82
2023/10/15 10:21:48;;;;;;;2.47;0.57;;;13.20;93.20;;;;;;5094945;28;20024;-82
2023/10/15 10:24:16;;;;;;;3.00;0.70;;;13.10;92.70;;;;;;5094006;28;20488;-81
2023/10/15 10:26:42;;;;;;;1.67;0.32;;;13.10;92.50;;;;;;5094592;28;20035;-81
2023/10/15 10:29:11;;;;;;;2.38;0.60;;;12.90;91.50;;;;;;5094197;28;20028;-81
2023/10/15 10:31:39;;;;;;;0.95;0.40;;;12.90;91.80;;;;;;5095826;28;20028;-81
2023/10/15 10:34:04;;;;;;;1.92;0.60;;;12.80;92.00;;;;;;5093662;28;20036;-81
2023/10/15 10:36:37;;;;;;;3.05;0.50;;;12.90;91.80;;;;;;5094714;28;20385;-81
2023/10/15 10:39:13;;;;;;;3.10;0.47;;;12.90;91.90;;;;;;5095197;28;20031;-81
2023/10/15 10:41:39;;;;;;;6.50;1.02;;;12.90;92.00;;;;;;5095823;28;20027;-81
2023/10/15 10:44:07;;;;;;;2.30;0.40;;;12.80;92.00;;;;;;5093952;28;20035;-81
2023/10/15 10:46:40;;;;;;;1.98;0.60;;;12.90;92.20;;;;;;5093866;28;20485;-81
2023/10/15 10:49:13;;;;;;;2.80;0.50;;;13.00;92.10;;;;;;5094820;28;20024;-81
2023/10/15 10:51:42;;;;;;;2.15;0.55;;;13.00;91.30;;;;;;5094910;28;20054;-81
2023/10/15 10:54:08;;;;;;;3.33;0.63;;;13.00;91.50;;;;;;5094599;28;20027;-81
2023/10/15 10:56:39;;;;;;;3.63;0.43;;;13.10;90.60;;;;;;5093975;28;20073;-81
2023/10/15 10:59:10;;;;;;;4.38;0.50;;;13.20;89.90;;;;;;5093742;28;20542;-81
2023/10/15 11:01:40;;;;;;;1.65;0.40;;;13.30;90.70;;;;;;5095110;28;20063;-81
2023/10/15 11:04:07;;;;;;;0.95;0.50;;;13.30;90.50;;;;;;5093474;28;20028;-81
2023/10/15 11:06:38;;;;;;;1.33;0.32;;;13.20;90.30;;;;;;5095090;28;20024;-81
2023/10/15 11:09:16;;;;;;;0.68;0.30;;;13.10;89.70;;;;;;5094630;28;20031;-81
2023/10/15 11:11:55;;;;;;;3.22;0.50;;;13.10;90.30;;;;;;5096246;28;20117;-81
2023/10/15 11:14:23;;;;;;;2.10;0.80;;;12.90;90.50;;;;;;5094261;28;20035;-81
2023/10/15 11:16:53;;;;;;;2.15;0.82;;;13.00;90.20;;;;;;5094590;28;20032;-83
2023/10/15 11:19:29;;;;;;;1.75;0.68;;;13.10;90.10;;;;;;5095873;28;20366;-83
2023/10/15 11:21:55;;;;;;;1.83;0.75;;;13.20;90.30;;;;;;5095525;28;20020;-81
2023/10/15 11:24:26;;;;;;;0.95;0.63;;;13.40;90.30;;;;;;5093443;28;20056;-81
2023/10/15 11:26:54;;;;;;;3.28;0.68;;;13.50;88.60;;;;;;5093838;28;20027;-83
2023/10/15 11:29:22;;;;;;;1.80;0.38;;;13.70;88.40;;;;;;5094022;28;20031;-82
2023/10/15 11:31:49;;;;;;;3.17;0.40;;;13.80;87.20;;;;;;5098453;28;20020;-81
2023/10/15 11:34:20;;;;;;;1.25;0.50;;;14.00;86.50;;;;;;5095441;28;20044;-81
2023/10/15 11:36:49;;;;;;;2.42;0.50;;;14.10;86.10;;;;;;5097491;28;20031;-81
2023/10/15 11:39:25;;;;;;;3.17;0.50;;;14.10;86.50;;;;;;5095552;28;20111;-81
2023/10/15 11:41:57;;;;;;;1.83;0.40;;;14.00;87.40;;;;;;5094469;28;20028;-81
2023/10/15 11:44:30;;;;;;;1.48;0.38;;;13.90;88.20;;;;;;5093335;28;20071;-81
2023/10/15 11:46:57;;;;;;;0.60;0.28;;;13.80;87.70;;;;;;5093992;28;20085;-81
2023/10/15 11:49:24;;;;;;;0.70;0.20;;;13.60;87.00;;;;;;5094223;28;20039;-82
2023/10/15 11:51:55;;;;;;;0.85;0.20;;;13.50;88.30;;;;;;5093294;28;20024;-81
2023/10/15 11:54:30;;;;;;;1.48;0.57;;;13.60;89.40;;;;;;5093682;28;20028;-81
2023/10/15 11:56:59;;;;;;;1.58;0.50;;;13.80;89.50;;;;;;5093255;28;20534;-81
2023/10/15 11:59:26;;;;;;;1.45;0.50;;;14.00;89.10;;;;;;5093573;28;20024;-81
2023/10/15 12:01:52;;;;;;;3.05;0.60;;;14.10;88.90;;;;;;5094018;28;20469;-81
2023/10/15 12:04:23;;;;;;;2.15;0.80;;;14.20;88.20;;;;;;5092579;28;20028;-81
2023/10/15 12:06:49;;;;;;;0.90;0.30;;;14.30;87.80;;;;;;5094066;28;20031;-81
2023/10/15 12:09:24;;;;;;;3.38;0.60;;;14.50;86.90;;;;;;5092153;28;20126;-82
2023/10/15 12:11:53;;;;;;;2.42;0.32;;;14.70;85.80;;;;;;5092959;28;20031;-82
2023/10/15 12:14:18;;;;;;;2.95;0.40;;;15.10;84.80;;;;;;5093134;28;20024;-81
2023/10/15 12:16:44;;;;;;;1.25;0.30;;;15.20;83.20;;;;;;5092489;28;20024;-81
2023/10/15 12:19:10;;;;;;;2.78;0.40;;;15.00;82.40;;;;;;5092238;28;20036;-81
2023/10/15 12:21:37;;;;;;;2.42;0.25;;;14.70;83.00;;;;;;5092665;28;20028;-81
2023/10/15 12:24:04;;;;;;;1.55;0.30;;;14.50;83.60;;;;;;5092244;28;20045;-79
2023/10/15 12:26:30;;;;;;;3.13;0.70;;;14.40;84.30;;;;;;5092656;28;20443;-81
2023/10/15 12:28:56;;;;;;;1.75;0.40;;;14.20;83.00;;;;;;5093083;28;20024;-81
2023/10/15 12:31:22;;;;;;;1.55;0.40;;;14.00;82.20;;;;;;5092092;28;20032;-82
2023/10/15 12:33:48;;;;;;;2.40;0.40;;;13.90;82.40;;;;;;5092749;28;20114;-81
2023/10/15 12:36:14;;;;;;;3.03;0.47;;;14.50;81.60;;;;;;5092099;28;20076;-82
2023/10/15 12:38:39;;;;;;;0.63;0.20;;;15.00;79.70;;;;;;5092803;28;20031;-82
2023/10/15 12:41:05;;;;;;;2.58;0.38;;;15.70;78.10;;;;;;5092222;28;20028;-80
2023/10/15 12:43:32;;;;;;;0.93;0.22;;;16.30;75.80;;;;;;5093835;28;20028;-82
2023/10/15 12:45:57;;;;;;;1.52;0.30;;;16.80;73.80;;;;;;5092335;28;20033;-82
2023/10/15 12:48:23;;;;;;;2.80;0.30;;;17.20;73.30;;;;;;5092344;28;20020;-82
2023/10/15 12:50:50;;;;;;;1.00;0.40;;;17.10;72.10;;;;;;5092628;28;20031;-82
2023/10/15 12:53:16;;;;;;;0.85;0.20;;;16.40;74.30;;;;;;5091817;28;20039;-82
2023/10/15 12:55:44;;;;;;;2.50;0.40;;;16.00;75.50;;;;;;5092506;28;20484;-82
2023/10/15 12:58:10;;;;;;;1.55;0.30;;;15.70;75.00;;;;;;5092971;28;20099;-81
2023/10/15 13:00:39;;;;;;;2.20;0.50;;;15.40;75.70;;;;;;5093415;28;20066;-82
2023/10/15 13:03:05;;;;;;;1.88;0.60;;;15.20;76.70;;;;;;5092027;28;20056;-79
2023/10/15 13:05:31;;;;;;;0.50;0.30;;;15.10;77.50;;;;;;5093554;28;20034;-82
2023/10/15 13:07:57;;;;;;;0.93;0.25;;;15.10;76.40;;;;;;5092361;28;20540;-82
2023/10/15 13:10:23;;;;;;;0.75;0.17;;;14.90;75.50;;;;;;5092095;28;20024;-82
2023/10/15 13:12:54;;;;;;;1.63;0.25;;;14.70;75.20;;;;;;5092542;28;20040;-81
2023/10/15 13:15:21;;;;;;;2.30;0.20;;;14.60;74.80;;;;;;5094645;28;20491;-82
2023/10/15 13:17:50;;;;;;;1.13;0.25;;;14.60;74.50;;;;;;5095983;28;20028;-82
2023/10/15 13:20:19;;;;;;;0.60;0.20;;;14.70;74.30;;;;;;5095303;28;20035;-82
2023/10/15 13:22:45;;;;;;;1.27;0.20;;;15.40;72.20;;;;;;5096025;28;20024;-81